Time;durP1;ratioP1;P1;durP2;ratioP2;P2;SDS_P1;SDS_P2;PMS_P1;PMS_P2;Temp;Humidity;BMP_temperature;BMP_pressure;BME280_temperature;BME280_humidity;BME280_pressure;Samples;Min_cycle;Max_cycle;Signal;HPM_P1;HPM_P2
2023/08/18 00:01:16;;;;;;;5.75;4.80;;;17.10;99.90;;;;;;5095356;27;20378;-80
2023/08/18 00:03:42;;;;;;;5.57;5.00;;;17.00;99.90;;;;;;5147898;27;20035;-80
2023/08/18 00:06:07;;;;;;;5.72;4.90;;;17.00;99.90;;;;;;5151359;27;20037;-79
2023/08/18 00:08:33;;;;;;;5.95;4.97;;;17.00;99.90;;;;;;5150780;27;20027;-80
2023/08/18 00:10:59;;;;;;;7.10;5.30;;;17.00;99.90;;;;;;5115840;27;20086;-80
2023/08/18 00:13:24;;;;;;;6.07;5.55;;;17.00;99.90;;;;;;5133115;27;20067;-80
2023/08/18 00:15:52;;;;;;;6.35;5.85;;;17.00;99.90;;;;;;5115805;27;20134;-80
2023/08/18 00:18:18;;;;;;;6.63;5.18;;;17.00;99.90;;;;;;5143481;27;20038;-80
2023/08/18 00:20:43;;;;;;;6.22;4.90;;;17.00;99.90;;;;;;5153095;27;20395;-80
2023/08/18 00:23:09;;;;;;;11.52;4.90;;;17.00;99.90;;;;;;5131879;27;20111;-81
2023/08/18 00:25:35;;;;;;;5.90;4.40;;;17.00;99.90;;;;;;5150739;27;20045;-80
2023/08/18 00:28:00;;;;;;;5.55;4.78;;;17.00;99.90;;;;;;5149447;27;20037;-81
2023/08/18 00:30:26;;;;;;;7.43;4.47;;;17.00;99.90;;;;;;5149846;27;20046;-80
2023/08/18 00:32:52;;;;;;;5.88;5.00;;;17.00;99.90;;;;;;5149517;27;20050;-80
2023/08/18 00:35:18;;;;;;;5.28;4.53;;;17.00;99.90;;;;;;5149699;27;20030;-80
2023/08/18 00:37:45;;;;;;;4.88;4.45;;;17.00;99.90;;;;;;5149063;27;20110;-80
2023/08/18 00:40:11;;;;;;;7.30;5.82;;;17.00;99.90;;;;;;5132110;27;20035;-80
2023/08/18 00:42:37;;;;;;;7.95;5.75;;;17.00;99.90;;;;;;5140064;27;20069;-80
2023/08/18 00:45:03;;;;;;;5.32;4.93;;;16.90;99.90;;;;;;5128778;27;20046;-80
2023/08/18 00:47:30;;;;;;;5.43;4.22;;;17.00;99.90;;;;;;5111638;27;20297;-80
2023/08/18 00:49:57;;;;;;;5.20;4.32;;;17.00;99.90;;;;;;5128575;27;20046;-80
2023/08/18 00:52:24;;;;;;;7.50;5.10;;;17.00;99.90;;;;;;5110920;27;20031;-80
2023/08/18 00:54:51;;;;;;;9.35;5.47;;;17.00;99.90;;;;;;5111755;28;20524;-80
2023/08/18 00:57:18;;;;;;;6.28;4.45;;;17.00;99.90;;;;;;5137303;27;20039;-80
2023/08/18 00:59:44;;;;;;;8.73;4.78;;;17.00;99.90;;;;;;5149616;27;20385;-81
2023/08/18 01:02:10;;;;;;;6.30;4.20;;;17.00;99.90;;;;;;5149231;27;20035;-80
2023/08/18 01:04:36;;;;;;;7.75;4.20;;;16.90;99.90;;;;;;5149045;27;20042;-80
2023/08/18 01:07:02;;;;;;;6.80;4.28;;;16.90;99.90;;;;;;5148794;27;20037;-80
2023/08/18 01:09:28;;;;;;;6.30;4.68;;;17.00;99.90;;;;;;5131675;27;20473;-80
2023/08/18 01:12:11;;;;;;;10.18;5.03;;;17.00;99.90;;;;;;5140923;27;20031;-80
2023/08/18 01:14:58;;;;;;;6.72;4.60;;;16.90;99.90;;;;;;5111194;28;20126;-80
2023/08/18 01:17:36;;;;;;;12.82;5.22;;;16.90;99.90;;;;;;5111331;28;20047;-80
2023/08/18 01:20:03;;;;;;;11.00;4.30;;;16.90;99.90;;;;;;5111230;28;20079;-80
2023/08/18 01:22:31;;;;;;;7.07;4.82;;;16.90;99.90;;;;;;5127660;28;20471;-80
2023/08/18 01:25:00;;;;;;;6.30;5.20;;;16.90;99.90;;;;;;5111095;28;20068;-80
2023/08/18 01:27:26;;;;;;;9.70;5.32;;;16.90;99.90;;;;;;5111232;28;20358;-80
2023/08/18 01:29:52;;;;;;;6.50;5.13;;;16.90;99.90;;;;;;5110958;28;20066;-80
2023/08/18 01:32:18;;;;;;;8.23;4.57;;;16.80;99.90;;;;;;5131001;27;20469;-80
2023/08/18 01:34:46;;;;;;;5.97;4.32;;;16.90;99.90;;;;;;5111200;28;20450;-80
2023/08/18 01:37:15;;;;;;;5.53;4.22;;;16.90;99.90;;;;;;5127515;28;20039;-80
2023/08/18 01:39:42;;;;;;;5.20;4.63;;;16.80;99.90;;;;;;5128116;28;20031;-80
2023/08/18 01:42:08;;;;;;;5.65;4.30;;;16.80;99.90;;;;;;5127887;28;20489;-80
2023/08/18 01:44:33;;;;;;;6.07;5.20;;;16.80;99.90;;;;;;5128148;28;20092;-80
2023/08/18 01:46:59;;;;;;;8.60;4.43;;;16.80;99.90;;;;;;5145813;27;20034;-80
2023/08/18 01:49:25;;;;;;;4.65;3.88;;;16.80;99.90;;;;;;5148350;27;20085;-80
2023/08/18 01:51:50;;;;;;;8.25;5.03;;;16.80;99.90;;;;;;5131668;27;20039;-80
2023/08/18 01:54:16;;;;;;;5.95;4.10;;;16.80;99.90;;;;;;5148566;27;20039;-80
2023/08/18 01:56:42;;;;;;;6.72;3.90;;;16.80;99.90;;;;;;5131317;27;20043;-79
2023/08/18 01:59:07;;;;;;;9.98;5.13;;;16.80;99.90;;;;;;5148437;27;20038;-80
2023/08/18 02:01:33;;;;;;;4.47;4.00;;;16.80;99.90;;;;;;5136236;27;20035;-80
2023/08/18 02:03:58;;;;;;;6.68;4.68;;;16.90;99.90;;;;;;5127327;28;20078;-80
2023/08/18 02:06:24;;;;;;;7.57;4.00;;;16.80;99.90;;;;;;5127670;28;20080;-80
2023/08/18 02:08:50;;;;;;;7.55;5.53;;;16.80;99.90;;;;;;5127645;28;20084;-80
2023/08/18 02:11:15;;;;;;;5.15;4.47;;;16.80;99.90;;;;;;5127790;28;20043;-80
2023/08/18 02:13:41;;;;;;;6.18;4.78;;;16.80;99.90;;;;;;5110730;28;20042;-80
2023/08/18 02:16:07;;;;;;;8.05;4.60;;;16.80;99.90;;;;;;5110459;28;20073;-80
2023/08/18 02:18:33;;;;;;;6.05;4.68;;;16.80;99.90;;;;;;5127546;28;20135;-80
2023/08/18 02:21:00;;;;;;;8.20;4.30;;;16.80;99.90;;;;;;5130062;27;20500;-80
2023/08/18 02:23:26;;;;;;;8.55;5.60;;;16.90;99.90;;;;;;5152741;27;20060;-79
2023/08/18 02:25:59;;;;;;;5.68;5.00;;;16.80;99.90;;;;;;5134532;27;20122;-80
2023/08/18 02:28:24;;;;;;;8.05;6.03;;;16.80;99.90;;;;;;5117980;27;20042;-80
2023/08/18 02:30:58;;;;;;;6.97;5.28;;;16.90;99.90;;;;;;5143863;27;20027;-80
2023/08/18 02:33:24;;;;;;;7.97;4.50;;;16.80;99.90;;;;;;5173373;27;20042;-80
2023/08/18 02:35:49;;;;;;;6.10;5.15;;;16.80;99.90;;;;;;5155391;27;20041;-80
2023/08/18 02:38:15;;;;;;;6.85;5.05;;;16.90;99.90;;;;;;5138004;27;20052;-80
2023/08/18 02:40:41;;;;;;;9.23;5.70;;;16.80;99.90;;;;;;5174068;27;20536;-80
2023/08/18 02:43:07;;;;;;;8.45;5.20;;;16.80;99.90;;;;;;5155272;27;20030;-81
2023/08/18 02:45:33;;;;;;;8.70;5.30;;;16.80;99.90;;;;;;5138055;27;20038;-80
2023/08/18 02:47:59;;;;;;;6.13;4.82;;;16.80;99.90;;;;;;5154771;27;20423;-80
2023/08/18 02:50:24;;;;;;;6.05;4.43;;;16.80;99.90;;;;;;5137753;27;20038;-80
2023/08/18 02:52:50;;;;;;;9.32;6.15;;;16.80;99.90;;;;;;5155399;27;20034;-80
2023/08/18 02:55:16;;;;;;;6.43;5.00;;;16.80;99.90;;;;;;5138046;27;20042;-80
2023/08/18 02:57:41;;;;;;;11.50;5.88;;;16.80;99.90;;;;;;5155008;27;20544;-80
2023/08/18 03:00:07;;;;;;;8.52;5.88;;;16.80;99.90;;;;;;5151631;27;20087;-80
2023/08/18 03:02:33;;;;;;;10.93;5.75;;;16.80;99.90;;;;;;5116485;27;20039;-80
2023/08/18 03:04:59;;;;;;;6.10;5.20;;;16.80;99.90;;;;;;5152536;27;20041;-80
2023/08/18 03:07:24;;;;;;;9.05;5.03;;;16.80;99.90;;;;;;5134365;27;20117;-80
2023/08/18 03:09:50;;;;;;;6.85;4.78;;;16.80;99.90;;;;;;5116871;27;20464;-80
2023/08/18 03:12:16;;;;;;;6.57;5.88;;;16.80;99.90;;;;;;5116946;27;20080;-80
2023/08/18 03:14:41;;;;;;;6.38;5.55;;;16.80;99.90;;;;;;5118169;27;20492;-81
2023/08/18 03:17:07;;;;;;;8.38;5.20;;;16.80;99.90;;;;;;5136997;27;20442;-80
2023/08/18 03:19:33;;;;;;;11.32;5.85;;;16.80;99.90;;;;;;5154599;27;20496;-80
2023/08/18 03:21:58;;;;;;;8.18;5.53;;;16.80;99.90;;;;;;5154177;27;20046;-80
2023/08/18 03:24:24;;;;;;;7.93;5.28;;;16.80;99.90;;;;;;5137292;27;20094;-80
2023/08/18 03:26:50;;;;;;;8.85;6.20;;;16.80;99.90;;;;;;5154332;27;20045;-80
2023/08/18 03:29:16;;;;;;;8.85;6.32;;;16.80;99.90;;;;;;5153992;27;20026;-80
2023/08/18 03:31:41;;;;;;;8.00;6.13;;;16.80;99.90;;;;;;5116080;27;20026;-80
2023/08/18 03:34:07;;;;;;;9.70;7.35;;;16.80;99.90;;;;;;5115443;27;20410;-80
2023/08/18 03:36:32;;;;;;;8.38;6.25;;;16.80;99.90;;;;;;5133580;27;20042;-80
2023/08/18 03:38:58;;;;;;;7.22;5.90;;;16.80;99.90;;;;;;5133439;27;20027;-80
2023/08/18 03:41:24;;;;;;;8.27;5.78;;;16.80;99.90;;;;;;5116395;27;20031;-80
2023/08/18 03:43:50;;;;;;;10.88;6.75;;;16.70;99.90;;;;;;5151928;27;20073;-80
2023/08/18 03:46:27;;;;;;;10.63;6.85;;;16.80;99.90;;;;;;5115633;27;20069;-81
2023/08/18 03:48:52;;;;;;;11.60;7.07;;;16.80;99.90;;;;;;5133116;27;20077;-80
2023/08/18 03:51:18;;;;;;;9.23;6.75;;;16.80;99.90;;;;;;5116019;27;20070;-80
2023/08/18 03:53:44;;;;;;;11.77;8.25;;;16.80;99.90;;;;;;5132953;27;20050;-80
2023/08/18 03:56:10;;;;;;;11.13;7.05;;;16.70;99.90;;;;;;5132973;27;20030;-80
2023/08/18 03:58:36;;;;;;;9.02;6.85;;;16.70;99.90;;;;;;5116136;27;20089;-80
2023/08/18 04:01:07;;;;;;;8.32;6.95;;;16.70;99.90;;;;;;5151366;27;20090;-80
2023/08/18 04:03:35;;;;;;;6.60;5.80;;;16.70;99.90;;;;;;5153903;27;20162;-80
2023/08/18 04:06:01;;;;;;;9.50;7.03;;;16.80;99.90;;;;;;5136240;27;20038;-80
2023/08/18 04:08:27;;;;;;;8.57;6.38;;;16.70;99.90;;;;;;5136038;27;20034;-80
2023/08/18 04:10:52;;;;;;;12.43;8.70;;;16.70;99.90;;;;;;5136509;27;20042;-80
2023/08/18 04:13:18;;;;;;;10.32;6.50;;;16.70;99.90;;;;;;5136277;27;20030;-80
2023/08/18 04:15:45;;;;;;;11.60;8.25;;;16.70;99.90;;;;;;5171324;27;20164;-80
2023/08/18 04:18:11;;;;;;;11.90;7.20;;;16.70;99.90;;;;;;5171839;27;20067;-80
2023/08/18 04:20:36;;;;;;;12.45;7.72;;;16.70;99.90;;;;;;5153315;27;20050;-80
2023/08/18 04:23:02;;;;;;;11.23;8.30;;;16.70;99.90;;;;;;5152896;27;20054;-80
2023/08/18 04:25:28;;;;;;;10.02;8.88;;;16.70;99.90;;;;;;5153086;27;20034;-80
2023/08/18 04:27:53;;;;;;;12.40;8.18;;;16.70;99.90;;;;;;5136103;27;20303;-80
2023/08/18 04:30:19;;;;;;;10.27;7.95;;;16.70;99.90;;;;;;5121855;27;20392;-80
2023/08/18 04:32:45;;;;;;;11.23;8.93;;;16.70;99.90;;;;;;5150794;27;20091;-80
2023/08/18 04:35:10;;;;;;;10.55;7.22;;;16.80;99.90;;;;;;5132303;27;20401;-80
2023/08/18 04:37:36;;;;;;;10.50;7.72;;;16.70;99.90;;;;;;5132057;27;20602;-80
2023/08/18 04:40:04;;;;;;;11.15;7.20;;;16.70;99.90;;;;;;5150552;27;20039;-80
2023/08/18 04:42:30;;;;;;;11.75;7.55;;;16.70;99.90;;;;;;5132121;27;20075;-80
2023/08/18 04:44:56;;;;;;;11.00;7.15;;;16.70;99.90;;;;;;5143210;27;20050;-80
2023/08/18 04:47:21;;;;;;;10.73;9.48;;;16.80;99.90;;;;;;5171594;27;20077;-80
2023/08/18 04:49:47;;;;;;;11.18;9.05;;;16.80;99.90;;;;;;5171862;27;20027;-80
2023/08/18 04:52:14;;;;;;;14.05;7.32;;;16.80;99.90;;;;;;5152593;27;20067;-80
2023/08/18 04:54:39;;;;;;;12.05;8.80;;;16.80;99.90;;;;;;5152910;27;20034;-80
2023/08/18 04:57:07;;;;;;;9.18;7.03;;;16.80;99.90;;;;;;5152635;27;20046;-80
2023/08/18 04:59:33;;;;;;;10.35;7.45;;;16.90;99.90;;;;;;5170858;27;20050;-80
2023/08/18 05:01:59;;;;;;;10.57;7.85;;;16.80;99.90;;;;;;5148352;27;20066;-80
2023/08/18 05:04:24;;;;;;;11.68;8.35;;;16.80;99.90;;;;;;5114470;27;20076;-80
2023/08/18 05:06:51;;;;;;;11.35;6.38;;;16.80;99.90;;;;;;5131757;27;20136;-80
2023/08/18 05:09:17;;;;;;;9.88;7.50;;;16.80;99.90;;;;;;5131854;27;20039;-80
2023/08/18 05:11:42;;;;;;;11.00;7.25;;;16.80;99.90;;;;;;5131882;27;20380;-80
2023/08/18 05:14:08;;;;;;;15.35;8.65;;;16.80;99.90;;;;;;5131287;27;20498;-80
2023/08/18 05:16:34;;;;;;;11.48;8.73;;;16.80;99.90;;;;;;5131723;27;20042;-80
2023/08/18 05:19:00;;;;;;;15.98;8.35;;;16.80;99.90;;;;;;5131822;27;20587;-80
2023/08/18 05:21:25;;;;;;;9.85;7.85;;;16.80;99.90;;;;;;5132343;27;20138;-79
2023/08/18 05:23:51;;;;;;;12.10;8.80;;;16.90;99.90;;;;;;5131607;27;20370;-80
2023/08/18 05:26:16;;;;;;;12.93;9.02;;;16.80;99.90;;;;;;5114443;27;20512;-80
2023/08/18 05:28:43;;;;;;;10.57;8.07;;;16.80;99.90;;;;;;5149624;27;20480;-80
2023/08/18 05:31:10;;;;;;;12.82;8.85;;;16.80;99.90;;;;;;5114765;27;20035;-80
2023/08/18 05:33:36;;;;;;;16.88;8.63;;;16.90;99.90;;;;;;5114283;27;20031;-80
2023/08/18 05:36:05;;;;;;;10.10;8.02;;;16.90;99.90;;;;;;5131338;27;20034;-79
2023/08/18 05:38:31;;;;;;;11.88;8.75;;;16.90;99.90;;;;;;5114576;27;20436;-80
2023/08/18 05:41:06;;;;;;;15.75;7.75;;;16.90;99.90;;;;;;5116246;27;20435;-80
2023/08/18 05:43:34;;;;;;;12.40;7.53;;;16.90;99.90;;;;;;5134703;27;20460;-80
2023/08/18 05:46:00;;;;;;;11.70;7.78;;;17.00;99.90;;;;;;5151833;27;20427;-80
2023/08/18 05:48:26;;;;;;;13.52;8.50;;;17.00;99.90;;;;;;5151970;27;20124;-80
2023/08/18 05:50:51;;;;;;;9.82;7.18;;;17.00;99.90;;;;;;5152046;27;20030;-80
2023/08/18 05:53:17;;;;;;;11.95;7.20;;;17.00;99.90;;;;;;5134698;27;20042;-80
2023/08/18 05:55:45;;;;;;;10.63;6.30;;;17.00;99.90;;;;;;5152087;27;20038;-80
2023/08/18 05:58:11;;;;;;;11.43;6.70;;;17.10;99.90;;;;;;5154131;27;20156;-80
2023/08/18 06:00:36;;;;;;;10.52;7.10;;;17.10;99.90;;;;;;5154279;27;20048;-80
2023/08/18 06:03:02;;;;;;;12.90;6.50;;;17.20;99.90;;;;;;5175123;27;20038;-80
2023/08/18 06:05:28;;;;;;;10.30;6.35;;;17.20;99.90;;;;;;5174704;27;20046;-80
2023/08/18 06:07:55;;;;;;;11.07;7.18;;;17.20;99.90;;;;;;5156120;27;20042;-80
2023/08/18 06:10:21;;;;;;;10.02;6.97;;;17.30;99.90;;;;;;5174409;27;20038;-80
2023/08/18 06:12:47;;;;;;;10.68;6.60;;;17.40;99.90;;;;;;5138521;27;20034;-80
2023/08/18 06:15:13;;;;;;;9.55;6.35;;;17.30;99.90;;;;;;5156046;27;20042;-80
2023/08/18 06:17:40;;;;;;;14.45;6.57;;;17.40;99.90;;;;;;5138090;27;20042;-80
2023/08/18 06:20:07;;;;;;;10.80;7.00;;;17.40;99.90;;;;;;5138306;27;20066;-80
2023/08/18 06:22:32;;;;;;;9.65;5.93;;;17.50;99.90;;;;;;5138144;27;20050;-80
2023/08/18 06:24:58;;;;;;;9.90;6.03;;;17.50;99.90;;;;;;5137822;27;20099;-80
2023/08/18 06:27:24;;;;;;;9.07;6.22;;;17.50;99.90;;;;;;5174383;27;20038;-81
2023/08/18 06:29:49;;;;;;;9.30;6.60;;;17.50;99.90;;;;;;5137869;27;20041;-80
2023/08/18 06:32:15;;;;;;;13.85;5.78;;;17.60;99.90;;;;;;5154514;27;20030;-80
2023/08/18 06:34:41;;;;;;;11.38;6.13;;;17.60;99.90;;;;;;5155412;27;20026;-80
2023/08/18 06:37:07;;;;;;;12.50;6.60;;;17.60;99.90;;;;;;5138226;27;20063;-80
2023/08/18 06:39:32;;;;;;;16.13;6.60;;;17.60;99.90;;;;;;5137820;27;20034;-80
2023/08/18 06:41:58;;;;;;;14.85;7.10;;;17.70;99.90;;;;;;5173934;27;20376;-80
2023/08/18 06:44:24;;;;;;;14.40;7.07;;;17.70;99.90;;;;;;5153655;27;20038;-80
2023/08/18 06:46:49;;;;;;;13.70;7.10;;;17.80;99.90;;;;;;5138064;27;20034;-80
2023/08/18 06:49:15;;;;;;;11.57;6.75;;;17.60;99.90;;;;;;5155338;27;20058;-80
2023/08/18 06:51:41;;;;;;;15.50;7.07;;;17.80;99.90;;;;;;5155333;27;20061;-80
2023/08/18 06:54:06;;;;;;;10.07;6.25;;;17.80;99.90;;;;;;5155070;27;20468;-80
2023/08/18 06:56:32;;;;;;;12.18;7.20;;;17.90;99.90;;;;;;5137922;27;20030;-80
2023/08/18 06:58:58;;;;;;;15.63;6.50;;;17.90;99.90;;;;;;5120303;27;20104;-80
2023/08/18 07:01:25;;;;;;;10.85;6.25;;;18.00;99.90;;;;;;5117081;27;20077;-80
2023/08/18 07:03:52;;;;;;;10.02;6.45;;;18.00;99.90;;;;;;5134357;27;20031;-80
2023/08/18 07:06:19;;;;;;;13.52;6.97;;;18.00;99.90;;;;;;5116860;27;20122;-80
2023/08/18 07:08:44;;;;;;;14.02;6.43;;;18.10;99.90;;;;;;5151872;27;20058;-80
2023/08/18 07:11:10;;;;;;;10.68;6.65;;;18.10;99.90;;;;;;5133997;27;20037;-80
2023/08/18 07:13:35;;;;;;;20.35;7.00;;;18.20;99.90;;;;;;5133966;27;20103;-80
2023/08/18 07:16:02;;;;;;;12.70;6.70;;;18.10;99.90;;;;;;5134326;27;20350;-80
2023/08/18 07:18:28;;;;;;;10.85;6.22;;;18.10;99.90;;;;;;5116602;27;20148;-80
2023/08/18 07:20:53;;;;;;;10.75;7.32;;;18.20;99.90;;;;;;5116941;27;20051;-80
2023/08/18 07:23:19;;;;;;;13.80;7.60;;;18.20;99.90;;;;;;5112473;27;20508;-81
2023/08/18 07:25:45;;;;;;;10.23;6.65;;;18.10;99.90;;;;;;5113238;27;20047;-80
2023/08/18 07:28:11;;;;;;;10.00;7.00;;;18.20;99.90;;;;;;5141878;27;20042;-80
2023/08/18 07:30:36;;;;;;;13.75;7.22;;;18.20;99.90;;;;;;5133763;27;20039;-80
2023/08/18 07:33:02;;;;;;;14.18;7.80;;;18.20;99.90;;;;;;5133672;27;20148;-80
2023/08/18 07:35:28;;;;;;;12.88;7.53;;;18.30;99.90;;;;;;5133482;27;20043;-80
2023/08/18 07:37:54;;;;;;;23.42;9.38;;;18.30;99.90;;;;;;5133001;27;20500;-80
2023/08/18 07:40:20;;;;;;;20.63;10.75;;;18.30;99.90;;;;;;5133564;27;20518;-80
2023/08/18 07:42:45;;;;;;;27.98;10.25;;;18.20;99.90;;;;;;5132996;27;20074;-80
2023/08/18 07:45:11;;;;;;;28.42;10.90;;;18.20;99.90;;;;;;5150678;27;20086;-80
2023/08/18 07:47:38;;;;;;;25.00;10.00;;;18.20;99.90;;;;;;5150776;27;20480;-80
2023/08/18 07:50:09;;;;;;;29.95;10.82;;;18.40;99.90;;;;;;5133460;27;20406;-80
2023/08/18 07:52:35;;;;;;;22.63;9.63;;;18.50;99.90;;;;;;5133029;27;20390;-80
2023/08/18 07:55:01;;;;;;;21.67;10.35;;;18.60;99.90;;;;;;5132876;27;20037;-80
2023/08/18 07:57:27;;;;;;;19.65;8.93;;;18.60;99.90;;;;;;5142843;27;20133;-80
2023/08/18 07:59:53;;;;;;;20.83;9.40;;;18.70;99.90;;;;;;5129465;27;20066;-80
2023/08/18 08:02:19;;;;;;;21.63;9.75;;;18.70;99.90;;;;;;5112321;27;20085;-80
2023/08/18 08:04:44;;;;;;;23.27;9.80;;;18.80;99.90;;;;;;5129712;27;20039;-80
2023/08/18 08:07:10;;;;;;;19.15;9.07;;;18.80;99.90;;;;;;5129096;27;20027;-80
2023/08/18 08:09:36;;;;;;;23.33;9.18;;;18.80;99.90;;;;;;5112230;27;20088;-80
2023/08/18 08:12:02;;;;;;;24.38;9.88;;;18.80;99.90;;;;;;5112442;27;20394;-80
2023/08/18 08:14:27;;;;;;;20.23;9.52;;;18.90;99.90;;;;;;5112461;27;20035;-80
2023/08/18 08:16:53;;;;;;;19.23;9.02;;;19.00;99.90;;;;;;5129506;27;20126;-80
2023/08/18 08:19:19;;;;;;;16.63;9.07;;;19.00;99.90;;;;;;5128970;27;20085;-80
2023/08/18 08:21:44;;;;;;;20.00;9.00;;;19.10;99.90;;;;;;5128166;27;20051;-80
2023/08/18 08:24:10;;;;;;;13.88;8.23;;;19.20;99.90;;;;;;5111916;27;20510;-80
2023/08/18 08:26:36;;;;;;;16.58;8.95;;;19.20;99.90;;;;;;5130194;27;20311;-80
2023/08/18 08:29:01;;;;;;;18.15;9.13;;;19.30;99.90;;;;;;5149907;27;20035;-81
2023/08/18 08:31:27;;;;;;;17.15;9.23;;;19.40;99.90;;;;;;5132300;27;20464;-80
2023/08/18 08:33:53;;;;;;;14.00;8.73;;;19.40;99.90;;;;;;5132228;27;20347;-80
2023/08/18 08:36:18;;;;;;;15.70;9.27;;;19.50;99.90;;;;;;5150505;27;20516;-80
2023/08/18 08:38:44;;;;;;;18.95;9.48;;;19.50;99.90;;;;;;5132378;27;20127;-81
2023/08/18 08:41:10;;;;;;;15.38;9.45;;;19.40;99.90;;;;;;5132224;27;20035;-80
2023/08/18 08:43:36;;;;;;;16.00;8.35;;;19.40;99.90;;;;;;5149308;27;20147;-81
2023/08/18 08:46:02;;;;;;;17.30;10.10;;;19.40;99.90;;;;;;5150713;27;20110;-80
2023/08/18 08:48:33;;;;;;;13.77;7.97;;;19.50;99.90;;;;;;5150809;27;20098;-81
2023/08/18 08:51:03;;;;;;;14.70;9.35;;;19.60;99.90;;;;;;5150028;27;20063;-81
2023/08/18 08:53:35;;;;;;;15.25;9.32;;;19.50;99.90;;;;;;5149289;27;20043;-81
2023/08/18 08:56:02;;;;;;;15.70;9.63;;;19.40;99.90;;;;;;5136033;27;20039;-81
2023/08/18 08:58:32;;;;;;;15.75;9.25;;;19.50;99.90;;;;;;5128615;27;20035;-81
2023/08/18 09:01:02;;;;;;;17.98;9.35;;;19.50;99.90;;;;;;5128929;27;20397;-81
2023/08/18 09:03:28;;;;;;;14.10;9.13;;;19.50;99.90;;;;;;5128488;27;20035;-81
2023/08/18 09:05:54;;;;;;;15.05;8.75;;;19.60;99.90;;;;;;5110625;27;20027;-81
2023/08/18 09:08:20;;;;;;;16.75;9.55;;;19.60;99.90;;;;;;5128507;27;20665;-81
2023/08/18 09:10:46;;;;;;;14.52;8.80;;;19.70;99.90;;;;;;5141730;27;20318;-81
2023/08/18 09:13:12;;;;;;;14.23;8.77;;;19.80;99.90;;;;;;5131667;27;20043;-81
2023/08/18 09:15:47;;;;;;;14.23;9.07;;;19.80;99.90;;;;;;5150398;27;20034;-81
2023/08/18 09:18:14;;;;;;;15.85;8.50;;;20.10;99.90;;;;;;5150316;27;20103;-82
2023/08/18 09:20:42;;;;;;;15.05;8.48;;;20.20;99.90;;;;;;5149806;27;20087;-81
2023/08/18 09:23:08;;;;;;;13.43;9.25;;;20.40;99.90;;;;;;5131414;27;20133;-81
2023/08/18 09:25:34;;;;;;;16.25;8.00;;;20.50;99.90;;;;;;5142246;27;20477;-81
2023/08/18 09:28:03;;;;;;;13.98;8.85;;;20.70;99.90;;;;;;5129682;28;20043;-81
2023/08/18 09:30:32;;;;;;;12.77;9.27;;;21.00;99.90;;;;;;5128529;28;20027;-81
2023/08/18 09:33:02;;;;;;;17.35;10.52;;;21.30;99.90;;;;;;5113906;27;20087;-81
2023/08/18 09:35:34;;;;;;;13.15;10.13;;;21.30;99.90;;;;;;5132278;27;20047;-81
2023/08/18 09:38:01;;;;;;;17.60;9.55;;;21.40;99.90;;;;;;5115728;27;20043;-81
2023/08/18 09:40:27;;;;;;;14.10;11.40;;;21.50;99.90;;;;;;5124131;27;20034;-81
2023/08/18 09:42:54;;;;;;;11.82;10.38;;;21.50;99.90;;;;;;5152814;27;20307;-81
2023/08/18 09:45:26;;;;;;;16.50;14.75;;;21.40;99.90;;;;;;5135850;27;20067;-81
2023/08/18 09:47:56;;;;;;;12.55;10.82;;;21.30;99.90;;;;;;5152436;27;20074;-81
2023/08/18 09:50:29;;;;;;;12.50;11.10;;;21.40;99.90;;;;;;5152954;27;20039;-81
2023/08/18 09:52:56;;;;;;;12.85;10.48;;;21.60;99.90;;;;;;5153014;27;20085;-81
2023/08/18 09:55:38;;;;;;;14.30;11.40;;;21.70;99.90;;;;;;5147938;27;20241;-81
2023/08/18 09:58:25;;;;;;;12.20;10.95;;;21.70;99.90;;;;;;5132276;27;20047;-81
2023/08/18 10:00:56;;;;;;;14.07;12.60;;;21.90;99.90;;;;;;5132315;27;20396;-81
2023/08/18 10:03:26;;;;;;;13.88;12.57;;;21.90;99.90;;;;;;5114410;27;20039;-81
2023/08/18 10:05:52;;;;;;;13.35;11.65;;;21.90;99.90;;;;;;5114636;27;20044;-81
2023/08/18 10:08:18;;;;;;;12.00;10.40;;;22.10;99.90;;;;;;5131915;27;20043;-81
2023/08/18 10:10:45;;;;;;;12.00;9.68;;;22.10;99.90;;;;;;5143646;27;20151;-81
2023/08/18 10:13:12;;;;;;;12.77;11.50;;;22.10;99.90;;;;;;5134995;27;20035;-81
2023/08/18 10:15:38;;;;;;;11.07;9.90;;;22.00;99.90;;;;;;5152652;27;20042;-81
2023/08/18 10:18:09;;;;;;;17.75;12.77;;;22.10;99.90;;;;;;5152061;27;20039;-81
2023/08/18 10:20:35;;;;;;;12.15;10.88;;;22.10;99.90;;;;;;5134937;27;20043;-81
2023/08/18 10:23:02;;;;;;;11.50;9.25;;;22.10;99.90;;;;;;5152013;27;20527;-81
2023/08/18 10:25:29;;;;;;;12.45;10.80;;;22.10;99.90;;;;;;5127865;27;20050;-81
2023/08/18 10:27:56;;;;;;;11.68;10.60;;;22.20;99.90;;;;;;5131515;27;20043;-81
2023/08/18 10:30:27;;;;;;;11.77;10.55;;;22.20;99.90;;;;;;5114525;27;20046;-81
2023/08/18 10:33:00;;;;;;;12.18;10.95;;;22.30;99.90;;;;;;5130719;27;20039;-81
2023/08/18 10:35:28;;;;;;;16.30;14.65;;;22.30;99.90;;;;;;5132628;27;20488;-81
2023/08/18 10:37:55;;;;;;;14.70;13.27;;;22.20;99.90;;;;;;5114179;27;20035;-81
2023/08/18 10:40:31;;;;;;;13.88;12.48;;;22.10;99.90;;;;;;5132312;27;20043;-81
2023/08/18 10:43:10;;;;;;;13.40;12.18;;;22.10;99.90;;;;;;5113570;27;20062;-81
2023/08/18 10:45:37;;;;;;;12.57;11.25;;;22.20;99.90;;;;;;5130900;27;20039;-81
2023/08/18 10:48:04;;;;;;;15.85;14.45;;;22.30;99.90;;;;;;5113844;27;20039;-81
2023/08/18 10:50:35;;;;;;;13.80;12.40;;;22.30;99.90;;;;;;5113665;27;20035;-81
2023/08/18 10:53:04;;;;;;;11.70;9.88;;;22.30;99.90;;;;;;5130768;27;20130;-81
2023/08/18 10:55:30;;;;;;;13.35;11.10;;;22.30;99.90;;;;;;5142051;27;20055;-81
2023/08/18 10:57:56;;;;;;;14.02;11.65;;;22.40;99.90;;;;;;5151621;27;20389;-81
2023/08/18 11:00:22;;;;;;;14.10;12.60;;;22.60;99.90;;;;;;5133950;27;20118;-81
2023/08/18 11:02:49;;;;;;;13.07;10.15;;;22.60;99.90;;;;;;5151402;27;20050;-81
2023/08/18 11:05:19;;;;;;;12.27;11.05;;;22.80;99.90;;;;;;5151406;27;20046;-81
2023/08/18 11:07:45;;;;;;;12.32;11.13;;;22.90;99.90;;;;;;5152925;27;20057;-81
2023/08/18 11:10:18;;;;;;;11.25;10.15;;;23.00;99.90;;;;;;5151096;27;20034;-81
2023/08/18 11:12:45;;;;;;;11.23;10.18;;;23.00;99.90;;;;;;5113174;27;20122;-81
2023/08/18 11:15:12;;;;;;;10.20;9.13;;;23.20;99.90;;;;;;5114223;27;20261;-81
2023/08/18 11:17:39;;;;;;;11.93;10.52;;;23.30;99.90;;;;;;5113229;27;20046;-81
2023/08/18 11:20:11;;;;;;;11.70;10.38;;;23.60;99.90;;;;;;5113468;27;20519;-81
2023/08/18 11:22:38;;;;;;;12.85;11.65;;;23.60;99.90;;;;;;5130412;27;20043;-81
2023/08/18 11:25:05;;;;;;;14.02;12.73;;;23.60;99.90;;;;;;5112967;27;20079;-81
2023/08/18 11:27:35;;;;;;;13.70;11.48;;;23.40;99.90;;;;;;5131747;27;20042;-81
2023/08/18 11:30:04;;;;;;;12.75;11.45;;;23.50;99.90;;;;;;5131186;27;20451;-81
2023/08/18 11:32:30;;;;;;;12.20;11.00;;;23.50;99.90;;;;;;5130101;27;20084;-81
2023/08/18 11:34:56;;;;;;;13.75;11.82;;;23.60;99.90;;;;;;5130131;27;20043;-81
2023/08/18 11:37:23;;;;;;;11.63;10.45;;;23.60;99.90;;;;;;5112811;27;20443;-81
2023/08/18 11:39:49;;;;;;;13.10;10.18;;;23.70;99.90;;;;;;5113095;27;20384;-81
2023/08/18 11:42:15;;;;;;;13.13;11.63;;;23.90;99.90;;;;;;5130067;27;20064;-81
2023/08/18 11:44:41;;;;;;;13.98;11.60;;;24.00;99.90;;;;;;5129423;27;20036;-81
2023/08/18 11:47:11;;;;;;;16.40;14.85;;;24.00;99.90;;;;;;5130203;27;20031;-81
2023/08/18 11:49:37;;;;;;;15.02;13.90;;;24.30;99.90;;;;;;5112582;27;20087;-81
2023/08/18 11:52:04;;;;;;;14.02;12.60;;;24.50;99.90;;;;;;5129962;27;20130;-81
2023/08/18 11:54:33;;;;;;;13.60;12.52;;;24.90;99.90;;;;;;5128983;27;20220;-81
2023/08/18 11:56:59;;;;;;;12.73;11.52;;;25.40;99.90;;;;;;5129841;27;20123;-81
2023/08/18 11:59:25;;;;;;;11.43;10.32;;;25.60;99.90;;;;;;5133862;27;20035;-82
2023/08/18 12:01:59;;;;;;;14.35;11.82;;;26.10;99.90;;;;;;5149921;27;20057;-81
2023/08/18 12:04:29;;;;;;;11.90;10.70;;;26.10;99.90;;;;;;5132789;27;20043;-81
2023/08/18 12:06:55;;;;;;;12.18;10.98;;;25.80;99.90;;;;;;5150434;27;20050;-81
2023/08/18 12:09:21;;;;;;;13.45;12.20;;;25.60;99.90;;;;;;5150095;27;20031;-81
2023/08/18 12:11:48;;;;;;;15.27;13.77;;;25.40;99.90;;;;;;5150113;27;20038;-81
2023/08/18 12:14:14;;;;;;;15.02;13.52;;;25.00;99.90;;;;;;5132483;27;20213;-82
2023/08/18 12:16:41;;;;;;;15.60;12.10;;;24.80;99.90;;;;;;5150928;27;20532;-81
2023/08/18 12:19:07;;;;;;;15.43;13.88;;;24.60;99.90;;;;;;5149632;27;20107;-81
2023/08/18 12:21:36;;;;;;;15.88;14.48;;;24.50;99.90;;;;;;5149771;27;20057;-81
2023/08/18 12:24:05;;;;;;;16.08;14.55;;;24.50;99.90;;;;;;5132633;27;20129;-81
2023/08/18 12:26:32;;;;;;;16.42;14.95;;;24.40;99.90;;;;;;5149673;27;20034;-81
2023/08/18 12:28:58;;;;;;;13.75;12.45;;;24.80;99.90;;;;;;5131897;27;20477;-81
2023/08/18 12:31:26;;;;;;;15.40;13.05;;;25.10;99.90;;;;;;5131017;27;20074;-81
2023/08/18 12:33:52;;;;;;;14.35;12.25;;;25.50;99.90;;;;;;5111858;27;20031;-81
2023/08/18 12:36:19;;;;;;;14.35;12.82;;;25.80;99.90;;;;;;5111961;27;20401;-81